sensor_id;sensor_type;location;lat;lon;timestamp;P1;durP1;ratioP1;P2;durP2;ratioP2
23676;SDS011;31493;49.058;12.190;2024-03-23T00:52:48;17.38;;;13.93;;
23676;SDS011;31493;49.058;12.190;2024-03-23T00:55:15;26.63;;;16.20;;
23676;SDS011;31493;49.058;12.190;2024-03-23T00:57:41;23.65;;;16.23;;
23676;SDS011;31493;49.058;12.190;2024-03-23T01:00:08;21.67;;;16.33;;
23676;SDS011;31493;49.058;12.190;2024-03-23T01:02:36;22.42;;;15.95;;
23676;SDS011;31493;49.058;12.190;2024-03-23T01:05:03;22.52;;;16.73;;
23676;SDS011;31493;49.058;12.190;2024-03-23T01:07:29;22.10;;;16.17;;
23676;SDS011;31493;49.058;12.190;2024-03-23T01:09:58;18.27;;;14.38;;
23676;SDS011;31493;49.058;12.190;2024-03-23T01:12:24;23.48;;;17.27;;
23676;SDS011;31493;49.058;12.190;2024-03-23T01:14:51;22.40;;;17.05;;
23676;SDS011;31493;49.058;12.190;2024-03-23T01:17:17;23.75;;;17.58;;
23676;SDS011;31493;49.058;12.190;2024-03-23T01:19:44;21.95;;;17.73;;
23676;SDS011;31493;49.058;12.190;2024-03-23T01:22:10;21.30;;;16.70;;
23676;SDS011;31493;49.058;12.190;2024-03-23T01:24:37;26.33;;;15.85;;
23676;SDS011;31493;49.058;12.190;2024-03-23T01:27:04;22.45;;;17.52;;
23676;SDS011;31493;49.058;12.190;2024-03-23T01:29:31;26.70;;;17.15;;
23676;SDS011;31493;49.058;12.190;2024-03-23T01:31:57;27.25;;;17.50;;
23676;SDS011;31493;49.058;12.190;2024-03-23T01:34:24;20.92;;;16.88;;
23676;SDS011;31493;49.058;12.190;2024-03-23T01:36:50;25.30;;;18.00;;
23676;SDS011;31493;49.058;12.190;2024-03-23T01:39:17;27.27;;;18.27;;
23676;SDS011;31493;49.058;12.190;2024-03-23T01:41:43;22.52;;;17.40;;
23676;SDS011;31493;49.058;12.190;2024-03-23T01:44:12;26.92;;;19.15;;
23676;SDS011;31493;49.058;12.190;2024-03-23T01:46:38;25.95;;;19.58;;
23676;SDS011;31493;49.058;12.190;2024-03-23T01:49:07;25.98;;;19.58;;
23676;SDS011;31493;49.058;12.190;2024-03-23T01:51:34;29.35;;;20.33;;
23676;SDS011;31493;49.058;12.190;2024-03-23T01:54:03;28.42;;;19.88;;
23676;SDS011;31493;49.058;12.190;2024-03-23T01:56:29;33.15;;;21.60;;
23676;SDS011;31493;49.058;12.190;2024-03-23T01:58:58;30.50;;;20.85;;
23676;SDS011;31493;49.058;12.190;2024-03-23T02:01:26;28.30;;;20.70;;
23676;SDS011;31493;49.058;12.190;2024-03-23T02:03:53;27.70;;;21.17;;
23676;SDS011;31493;49.058;12.190;2024-03-23T02:06:19;28.65;;;21.25;;
23676;SDS011;31493;49.058;12.190;2024-03-23T02:08:46;26.60;;;20.75;;
23676;SDS011;31493;49.058;12.190;2024-03-23T02:11:12;29.48;;;21.30;;
23676;SDS011;31493;49.058;12.190;2024-03-23T02:13:39;33.72;;;21.70;;
23676;SDS011;31493;49.058;12.190;2024-03-23T02:16:05;27.48;;;21.13;;
23676;SDS011;31493;49.058;12.190;2024-03-23T02:18:33;30.58;;;22.13;;
23676;SDS011;31493;49.058;12.190;2024-03-23T02:20:59;24.98;;;18.90;;
23676;SDS011;31493;49.058;12.190;2024-03-23T02:23:28;31.48;;;20.52;;
23676;SDS011;31493;49.058;12.190;2024-03-23T02:25:54;29.15;;;22.23;;
23676;SDS011;31493;49.058;12.190;2024-03-23T02:28:21;33.20;;;23.08;;
23676;SDS011;31493;49.058;12.190;2024-03-23T02:30:48;30.17;;;22.95;;
23676;SDS011;31493;49.058;12.190;2024-03-23T02:33:15;29.98;;;22.55;;
23676;SDS011;31493;49.058;12.190;2024-03-23T02:35:41;30.10;;;22.45;;
23676;SDS011;31493;49.058;12.190;2024-03-23T02:38:08;27.35;;;21.83;;
23676;SDS011;31493;49.058;12.190;2024-03-23T02:40:36;31.55;;;20.13;;
23676;SDS011;31493;49.058;12.190;2024-03-23T02:43:03;29.58;;;20.40;;
23676;SDS011;31493;49.058;12.190;2024-03-23T02:45:29;25.55;;;19.70;;
23676;SDS011;31493;49.058;12.190;2024-03-23T02:47:57;29.73;;;20.35;;
23676;SDS011;31493;49.058;12.190;2024-03-23T02:50:23;27.85;;;19.30;;
23676;SDS011;31493;49.058;12.190;2024-03-23T02:52:50;29.20;;;20.90;;
23676;SDS011;31493;49.058;12.190;2024-03-23T02:55:16;29.58;;;20.42;;
23676;SDS011;31493;49.058;12.190;2024-03-23T02:57:44;26.80;;;18.88;;
23676;SDS011;31493;49.058;12.190;2024-03-23T03:00:11;30.20;;;19.60;;
23676;SDS011;31493;49.058;12.190;2024-03-23T03:02:38;24.55;;;17.52;;
23676;SDS011;31493;49.058;12.190;2024-03-23T03:05:05;26.50;;;18.35;;
23676;SDS011;31493;49.058;12.190;2024-03-23T03:07:34;24.98;;;18.02;;
23676;SDS011;31493;49.058;12.190;2024-03-23T03:10:00;24.85;;;17.65;;
23676;SDS011;31493;49.058;12.190;2024-03-23T03:12:27;24.90;;;18.05;;
23676;SDS011;31493;49.058;12.190;2024-03-23T03:14:54;27.10;;;17.80;;
23676;SDS011;31493;49.058;12.190;2024-03-23T03:17:21;23.83;;;17.15;;
23676;SDS011;31493;49.058;12.190;2024-03-23T03:19:49;21.27;;;14.35;;
23676;SDS011;31493;49.058;12.190;2024-03-23T03:22:21;22.35;;;16.00;;
23676;SDS011;31493;49.058;12.190;2024-03-23T03:24:47;18.00;;;12.88;;
23676;SDS011;31493;49.058;12.190;2024-03-23T03:27:14;17.33;;;11.15;;
23676;SDS011;31493;49.058;12.190;2024-03-23T03:29:40;17.95;;;10.32;;
23676;SDS011;31493;49.058;12.190;2024-03-23T03:32:08;19.60;;;12.27;;
23676;SDS011;31493;49.058;12.190;2024-03-23T03:34:34;16.45;;;12.05;;
23676;SDS011;31493;49.058;12.190;2024-03-23T03:37:01;19.67;;;10.77;;
23676;SDS011;31493;49.058;12.190;2024-03-23T03:39:27;17.35;;;11.95;;
23676;SDS011;31493;49.058;12.190;2024-03-23T03:41:54;12.90;;;9.38;;
23676;SDS011;31493;49.058;12.190;2024-03-23T03:44:20;13.95;;;10.40;;
23676;SDS011;31493;49.058;12.190;2024-03-23T03:46:47;14.77;;;10.07;;
23676;SDS011;31493;49.058;12.190;2024-03-23T03:49:15;18.83;;;11.15;;
23676;SDS011;31493;49.058;12.190;2024-03-23T03:51:42;13.15;;;8.48;;
23676;SDS011;31493;49.058;12.190;2024-03-23T03:54:08;11.15;;;8.40;;
23676;SDS011;31493;49.058;12.190;2024-03-23T03:56:35;12.65;;;9.75;;
23676;SDS011;31493;49.058;12.190;2024-03-23T03:59:01;11.75;;;8.60;;
23676;SDS011;31493;49.058;12.190;2024-03-23T04:01:28;10.93;;;8.20;;
23676;SDS011;31493;49.058;12.190;2024-03-23T04:03:54;11.65;;;8.20;;
23676;SDS011;31493;49.058;12.190;2024-03-23T04:06:22;12.63;;;8.27;;
23676;SDS011;31493;49.058;12.190;2024-03-23T04:08:49;14.05;;;8.98;;
23676;SDS011;31493;49.058;12.190;2024-03-23T04:11:16;13.35;;;8.73;;
23676;SDS011;31493;49.058;12.190;2024-03-23T04:13:42;11.05;;;8.10;;
23676;SDS011;31493;49.058;12.190;2024-03-23T04:16:09;11.57;;;8.27;;
23676;SDS011;31493;49.058;12.190;2024-03-23T04:18:35;10.38;;;7.38;;
23676;SDS011;31493;49.058;12.190;2024-03-23T04:21:03;13.95;;;8.23;;
23676;SDS011;31493;49.058;12.190;2024-03-23T04:23:30;11.93;;;7.60;;
23676;SDS011;31493;49.058;12.190;2024-03-23T04:26:02;14.45;;;8.15;;
23676;SDS011;31493;49.058;12.190;2024-03-23T04:28:29;13.25;;;7.97;;
23676;SDS011;31493;49.058;12.190;2024-03-23T04:30:56;9.65;;;7.15;;
23676;SDS011;31493;49.058;12.190;2024-03-23T04:33:22;9.55;;;7.63;;
23676;SDS011;31493;49.058;12.190;2024-03-23T04:35:49;11.35;;;7.47;;
23676;SDS011;31493;49.058;12.190;2024-03-23T04:38:15;12.38;;;7.95;;
23676;SDS011;31493;49.058;12.190;2024-03-23T04:40:43;12.23;;;8.30;;
23676;SDS011;31493;49.058;12.190;2024-03-23T04:43:10;12.93;;;8.23;;
23676;SDS011;31493;49.058;12.190;2024-03-23T04:45:37;11.77;;;7.25;;
23676;SDS011;31493;49.058;12.190;2024-03-23T04:48:04;10.18;;;7.22;;
23676;SDS011;31493;49.058;12.190;2024-03-23T04:50:32;12.52;;;8.80;;
23676;SDS011;31493;49.058;12.190;2024-03-23T04:52:59;10.95;;;7.30;;
23676;SDS011;31493;49.058;12.190;2024-03-23T04:55:26;11.30;;;7.65;;
23676;SDS011;31493;49.058;12.190;2024-03-23T04:57:53;10.07;;;6.75;;
23676;SDS011;31493;49.058;12.190;2024-03-23T05:00:20;10.15;;;6.97;;
23676;SDS011;31493;49.058;12.190;2024-03-23T05:02:46;10.20;;;6.82;;
23676;SDS011;31493;49.058;12.190;2024-03-23T05:05:13;9.77;;;6.53;;
23676;SDS011;31493;49.058;12.190;2024-03-23T05:07:39;9.45;;;6.68;;
23676;SDS011;31493;49.058;12.190;2024-03-23T05:10:08;8.35;;;6.20;;
23676;SDS011;31493;49.058;12.190;2024-03-23T05:12:36;8.00;;;6.40;;
23676;SDS011;31493;49.058;12.190;2024-03-23T05:15:05;7.97;;;6.70;;
23676;SDS011;31493;49.058;12.190;2024-03-23T05:17:31;8.65;;;6.22;;
23676;SDS011;31493;49.058;12.190;2024-03-23T05:19:59;10.18;;;6.45;;
23676;SDS011;31493;49.058;12.190;2024-03-23T05:22:25;7.35;;;5.70;;
23676;SDS011;31493;49.058;12.190;2024-03-23T05:24:52;7.30;;;6.10;;
23676;SDS011;31493;49.058;12.190;2024-03-23T05:27:18;7.95;;;5.63;;
23676;SDS011;31493;49.058;12.190;2024-03-23T05:29:45;7.90;;;5.43;;
23676;SDS011;31493;49.058;12.190;2024-03-23T05:32:14;8.55;;;6.03;;
23676;SDS011;31493;49.058;12.190;2024-03-23T05:34:41;7.57;;;6.13;;
23676;SDS011;31493;49.058;12.190;2024-03-23T05:37:07;7.93;;;5.53;;
23676;SDS011;31493;49.058;12.190;2024-03-23T05:39:34;8.38;;;5.75;;
23676;SDS011;31493;49.058;12.190;2024-03-23T05:42:00;8.23;;;6.22;;
23676;SDS011;31493;49.058;12.190;2024-03-23T05:44:27;10.00;;;6.90;;
23676;SDS011;31493;49.058;12.190;2024-03-23T05:46:54;8.38;;;5.88;;
23676;SDS011;31493;49.058;12.190;2024-03-23T05:49:22;11.10;;;6.22;;
23676;SDS011;31493;49.058;12.190;2024-03-23T05:51:48;9.63;;;6.13;;
23676;SDS011;31493;49.058;12.190;2024-03-23T05:54:15;10.55;;;5.90;;
23676;SDS011;31493;49.058;12.190;2024-03-23T05:56:41;7.70;;;5.55;;
23676;SDS011;31493;49.058;12.190;2024-03-23T05:59:08;7.18;;;5.30;;
23676;SDS011;31493;49.058;12.190;2024-03-23T06:01:34;8.27;;;5.70;;
23676;SDS011;31493;49.058;12.190;2024-03-23T06:04:01;7.78;;;6.40;;
23676;SDS011;31493;49.058;12.190;2024-03-23T06:06:29;8.38;;;5.57;;
23676;SDS011;31493;49.058;12.190;2024-03-23T06:08:56;8.55;;;6.07;;
23676;SDS011;31493;49.058;12.190;2024-03-23T06:11:22;10.93;;;6.10;;
23676;SDS011;31493;49.058;12.190;2024-03-23T06:13:52;8.15;;;5.75;;
23676;SDS011;31493;49.058;12.190;2024-03-23T06:16:18;6.07;;;4.22;;
23676;SDS011;31493;49.058;12.190;2024-03-23T06:18:49;9.82;;;5.60;;
23676;SDS011;31493;49.058;12.190;2024-03-23T06:21:15;8.27;;;4.88;;
23676;SDS011;31493;49.058;12.190;2024-03-23T06:23:44;9.15;;;5.22;;
23676;SDS011;31493;49.058;12.190;2024-03-23T06:26:16;7.90;;;4.88;;
23676;SDS011;31493;49.058;12.190;2024-03-23T06:28:43;9.00;;;4.72;;
23676;SDS011;31493;49.058;12.190;2024-03-23T06:31:09;8.43;;;5.10;;
23676;SDS011;31493;49.058;12.190;2024-03-23T06:33:36;8.95;;;4.68;;
23676;SDS011;31493;49.058;12.190;2024-03-23T06:36:03;9.30;;;4.60;;
23676;SDS011;31493;49.058;12.190;2024-03-23T06:38:30;8.02;;;5.15;;
23676;SDS011;31493;49.058;12.190;2024-03-23T06:40:58;6.57;;;4.43;;
23676;SDS011;31493;49.058;12.190;2024-03-23T06:43:25;7.18;;;4.15;;
23676;SDS011;31493;49.058;12.190;2024-03-23T06:45:54;5.00;;;3.92;;
23676;SDS011;31493;49.058;12.190;2024-03-23T06:48:21;7.85;;;4.18;;
23676;SDS011;31493;49.058;12.190;2024-03-23T06:50:48;7.43;;;4.80;;
23676;SDS011;31493;49.058;12.190;2024-03-23T06:53:15;6.47;;;4.07;;
23676;SDS011;31493;49.058;12.190;2024-03-23T06:55:41;10.20;;;4.85;;
23676;SDS011;31493;49.058;12.190;2024-03-23T06:58:10;6.80;;;4.90;;
23676;SDS011;31493;49.058;12.190;2024-03-23T07:00:36;8.20;;;4.53;;
23676;SDS011;31493;49.058;12.190;2024-03-23T07:03:03;8.00;;;4.95;;
23676;SDS011;31493;49.058;12.190;2024-03-23T07:05:29;7.60;;;4.63;;
23676;SDS011;31493;49.058;12.190;2024-03-23T07:07:56;7.55;;;4.80;;
23676;SDS011;31493;49.058;12.190;2024-03-23T07:10:22;6.22;;;4.43;;
23676;SDS011;31493;49.058;12.190;2024-03-23T07:12:49;7.07;;;4.78;;
23676;SDS011;31493;49.058;12.190;2024-03-23T07:15:16;6.70;;;5.10;;
23676;SDS011;31493;49.058;12.190;2024-03-23T07:17:46;10.23;;;5.45;;
23676;SDS011;31493;49.058;12.190;2024-03-23T07:20:12;6.40;;;4.03;;
23676;SDS011;31493;49.058;12.190;2024-03-23T07:22:39;10.80;;;4.85;;
23676;SDS011;31493;49.058;12.190;2024-03-23T07:25:06;8.73;;;4.88;;
23676;SDS011;31493;49.058;12.190;2024-03-23T07:27:33;7.90;;;4.63;;
23676;SDS011;31493;49.058;12.190;2024-03-23T07:29:59;6.10;;;4.50;;
23676;SDS011;31493;49.058;12.190;2024-03-23T07:32:28;8.23;;;4.97;;
23676;SDS011;31493;49.058;12.190;2024-03-23T07:34:54;6.88;;;5.28;;
23676;SDS011;31493;49.058;12.190;2024-03-23T07:37:21;6.88;;;5.07;;
23676;SDS011;31493;49.058;12.190;2024-03-23T07:39:47;8.35;;;5.43;;
23676;SDS011;31493;49.058;12.190;2024-03-23T07:42:14;6.45;;;4.95;;
23676;SDS011;31493;49.058;12.190;2024-03-23T07:44:40;11.70;;;5.32;;
23676;SDS011;31493;49.058;12.190;2024-03-23T07:47:07;12.98;;;5.90;;
23676;SDS011;31493;49.058;12.190;2024-03-23T07:49:34;12.13;;;6.90;;
23676;SDS011;31493;49.058;12.190;2024-03-23T07:52:01;10.73;;;7.07;;
23676;SDS011;31493;49.058;12.190;2024-03-23T07:54:27;9.85;;;5.68;;
23676;SDS011;31493;49.058;12.190;2024-03-23T07:56:54;8.88;;;6.10;;
23676;SDS011;31493;49.058;12.190;2024-03-23T07:59:20;9.05;;;6.95;;
23676;SDS011;31493;49.058;12.190;2024-03-23T08:01:47;10.52;;;6.15;;
23676;SDS011;31493;49.058;12.190;2024-03-23T08:04:13;9.45;;;6.30;;
23676;SDS011;31493;49.058;12.190;2024-03-23T08:06:49;8.65;;;6.22;;
23676;SDS011;31493;49.058;12.190;2024-03-23T08:09:15;9.23;;;6.00;;
23676;SDS011;31493;49.058;12.190;2024-03-23T08:11:44;6.45;;;4.75;;
23676;SDS011;31493;49.058;12.190;2024-03-23T08:14:12;7.35;;;4.60;;
23676;SDS011;31493;49.058;12.190;2024-03-23T08:16:39;7.90;;;4.75;;
23676;SDS011;31493;49.058;12.190;2024-03-23T08:19:05;4.82;;;3.83;;
23676;SDS011;31493;49.058;12.190;2024-03-23T08:21:34;4.80;;;3.50;;
23676;SDS011;31493;49.058;12.190;2024-03-23T08:24:01;4.60;;;3.03;;
23676;SDS011;31493;49.058;12.190;2024-03-23T08:26:29;6.20;;;3.92;;
23676;SDS011;31493;49.058;12.190;2024-03-23T08:28:55;6.07;;;3.88;;
23676;SDS011;31493;49.058;12.190;2024-03-23T08:31:22;4.13;;;3.60;;
23676;SDS011;31493;49.058;12.190;2024-03-23T08:33:48;4.70;;;3.53;;
23676;SDS011;31493;49.058;12.190;2024-03-23T08:36:15;5.72;;;4.10;;
23676;SDS011;31493;49.058;12.190;2024-03-23T08:38:42;5.03;;;3.70;;
23676;SDS011;31493;49.058;12.190;2024-03-23T08:41:11;4.50;;;3.55;;
23676;SDS011;31493;49.058;12.190;2024-03-23T08:43:37;6.28;;;3.53;;
23676;SDS011;31493;49.058;12.190;2024-03-23T08:46:05;4.00;;;3.40;;
23676;SDS011;31493;49.058;12.190;2024-03-23T08:48:32;4.25;;;3.10;;
23676;SDS011;31493;49.058;12.190;2024-03-23T08:51:02;4.68;;;3.20;;
23676;SDS011;31493;49.058;12.190;2024-03-23T08:53:29;4.38;;;3.20;;
23676;SDS011;31493;49.058;12.190;2024-03-23T08:55:56;4.80;;;3.45;;
23676;SDS011;31493;49.058;12.190;2024-03-23T08:58:25;4.40;;;3.55;;
23676;SDS011;31493;49.058;12.190;2024-03-23T09:00:53;5.30;;;3.65;;
23676;SDS011;31493;49.058;12.190;2024-03-23T09:03:23;5.00;;;3.72;;
23676;SDS011;31493;49.058;12.190;2024-03-23T09:05:50;5.68;;;3.50;;
23676;SDS011;31493;49.058;12.190;2024-03-23T09:08:17;5.85;;;3.35;;
23676;SDS011;31493;49.058;12.190;2024-03-23T09:10:44;3.50;;;2.85;;
23676;SDS011;31493;49.058;12.190;2024-03-23T09:13:10;5.25;;;4.07;;
23676;SDS011;31493;49.058;12.190;2024-03-23T09:15:46;5.13;;;3.85;;
23676;SDS011;31493;49.058;12.190;2024-03-23T09:18:14;5.10;;;3.70;;
23676;SDS011;31493;49.058;12.190;2024-03-23T09:20:41;5.40;;;3.65;;
23676;SDS011;31493;49.058;12.190;2024-03-23T09:23:07;6.40;;;3.78;;
23676;SDS011;31493;49.058;12.190;2024-03-23T09:25:36;8.00;;;4.28;;
23676;SDS011;31493;49.058;12.190;2024-03-23T09:28:03;5.53;;;3.42;;
23676;SDS011;31493;49.058;12.190;2024-03-23T09:30:31;7.10;;;4.03;;
23676;SDS011;31493;49.058;12.190;2024-03-23T09:32:59;5.95;;;3.47;;
23676;SDS011;31493;49.058;12.190;2024-03-23T09:35:26;7.03;;;4.00;;
23676;SDS011;31493;49.058;12.190;2024-03-23T09:37:52;6.07;;;4.40;;
23676;SDS011;31493;49.058;12.190;2024-03-23T09:40:20;5.65;;;4.25;;
23676;SDS011;31493;49.058;12.190;2024-03-23T09:42:49;7.55;;;4.32;;
23676;SDS011;31493;49.058;12.190;2024-03-23T09:45:18;6.28;;;3.90;;
23676;SDS011;31493;49.058;12.190;2024-03-23T09:47:47;4.63;;;3.70;;
23676;SDS011;31493;49.058;12.190;2024-03-23T09:52:45;5.97;;;3.92;;
23676;SDS011;31493;49.058;12.190;2024-03-23T09:57:39;4.78;;;3.60;;
23676;SDS011;31493;49.058;12.190;2024-03-23T10:00:06;6.28;;;3.45;;
23676;SDS011;31493;49.058;12.190;2024-03-23T10:02:33;8.18;;;3.65;;
23676;SDS011;31493;49.058;12.190;2024-03-23T10:05:01;4.35;;;3.42;;
23676;SDS011;31493;49.058;12.190;2024-03-23T10:07:29;4.53;;;3.40;;
23676;SDS011;31493;49.058;12.190;2024-03-23T10:09:56;4.93;;;3.17;;
23676;SDS011;31493;49.058;12.190;2024-03-23T10:12:23;4.95;;;3.28;;
23676;SDS011;31493;49.058;12.190;2024-03-23T10:14:50;3.07;;;2.70;;
23676;SDS011;31493;49.058;12.190;2024-03-23T10:17:17;3.00;;;2.42;;
23676;SDS011;31493;49.058;12.190;2024-03-23T10:19:45;2.75;;;2.25;;
23676;SDS011;31493;49.058;12.190;2024-03-23T10:22:13;2.50;;;2.10;;
23676;SDS011;31493;49.058;12.190;2024-03-23T10:24:42;2.83;;;1.92;;
23676;SDS011;31493;49.058;12.190;2024-03-23T10:27:09;2.50;;;1.70;;
23676;SDS011;31493;49.058;12.190;2024-03-23T10:29:35;2.60;;;1.90;;
23676;SDS011;31493;49.058;12.190;2024-03-23T10:32:08;1.58;;;1.38;;
23676;SDS011;31493;49.058;12.190;2024-03-23T10:34:35;3.70;;;1.20;;
23676;SDS011;31493;49.058;12.190;2024-03-23T10:37:03;2.15;;;1.30;;
23676;SDS011;31493;49.058;12.190;2024-03-23T10:39:33;1.58;;;1.13;;
23676;SDS011;31493;49.058;12.190;2024-03-23T10:42:06;1.13;;;1.02;;
23676;SDS011;31493;49.058;12.190;2024-03-23T10:44:33;1.10;;;1.00;;
23676;SDS011;31493;49.058;12.190;2024-03-23T10:47:01;1.48;;;0.93;;
23676;SDS011;31493;49.058;12.190;2024-03-23T10:49:28;1.20;;;1.00;;
23676;SDS011;31493;49.058;12.190;2024-03-23T10:51:58;1.55;;;1.10;;
23676;SDS011;31493;49.058;12.190;2024-03-23T10:54:24;1.33;;;0.80;;
23676;SDS011;31493;49.058;12.190;2024-03-23T10:56:53;1.00;;;0.90;;
23676;SDS011;31493;49.058;12.190;2024-03-23T10:59:24;1.13;;;1.00;;
23676;SDS011;31493;49.058;12.190;2024-03-23T11:02:37;0.82;;;0.82;;
23676;SDS011;31493;49.058;12.190;2024-03-23T11:07:55;1.35;;;0.80;;
23676;SDS011;31493;49.058;12.190;2024-03-23T11:10:25;1.10;;;1.00;;
23676;SDS011;31493;49.058;12.190;2024-03-23T11:12:52;0.70;;;0.70;;
23676;SDS011;31493;49.058;12.190;2024-03-23T11:15:19;1.00;;;0.80;;
23676;SDS011;31493;49.058;12.190;2024-03-23T11:20:33;0.98;;;0.80;;
23676;SDS011;31493;49.058;12.190;2024-03-23T11:23:00;0.65;;;0.65;;
23676;SDS011;31493;49.058;12.190;2024-03-23T11:25:28;1.85;;;0.88;;
23676;SDS011;31493;49.058;12.190;2024-03-23T11:27:55;1.00;;;0.90;;
23676;SDS011;31493;49.058;12.190;2024-03-23T11:30:23;0.70;;;0.70;;
23676;SDS011;31493;49.058;12.190;2024-03-23T11:32:51;1.30;;;0.90;;
23676;SDS011;31493;49.058;12.190;2024-03-23T11:35:27;1.05;;;0.77;;
23676;SDS011;31493;49.058;12.190;2024-03-23T11:38:01;0.85;;;0.85;;
23676;SDS011;31493;49.058;12.190;2024-03-23T11:40:31;1.15;;;0.80;;
23676;SDS011;31493;49.058;12.190;2024-03-23T11:42:58;1.05;;;0.90;;
23676;SDS011;31493;49.058;12.190;2024-03-23T11:45:25;1.20;;;1.00;;
23676;SDS011;31493;49.058;12.190;2024-03-23T11:50:36;1.88;;;1.00;;
23676;SDS011;31493;49.058;12.190;2024-03-23T11:55:43;1.13;;;0.77;;
23676;SDS011;31493;49.058;12.190;2024-03-23T11:58:11;4.53;;;0.75;;
23676;SDS011;31493;49.058;12.190;2024-03-23T12:00:38;1.58;;;0.93;;
23676;SDS011;31493;49.058;12.190;2024-03-23T12:03:05;1.40;;;1.00;;
23676;SDS011;31493;49.058;12.190;2024-03-23T12:05:33;0.95;;;0.90;;
23676;SDS011;31493;49.058;12.190;2024-03-23T12:10:47;1.15;;;0.70;;
23676;SDS011;31493;49.058;12.190;2024-03-23T12:13:16;0.90;;;0.80;;
23676;SDS011;31493;49.058;12.190;2024-03-23T12:15:44;1.38;;;0.80;;
23676;SDS011;31493;49.058;12.190;2024-03-23T12:18:11;1.25;;;0.80;;
23676;SDS011;31493;49.058;12.190;2024-03-23T12:20:38;1.40;;;0.80;;
23676;SDS011;31493;49.058;12.190;2024-03-23T12:23:05;0.70;;;0.70;;
23676;SDS011;31493;49.058;12.190;2024-03-23T12:25:34;1.65;;;1.30;;
23676;SDS011;31493;49.058;12.190;2024-03-23T12:28:00;4.82;;;1.52;;
23676;SDS011;31493;49.058;12.190;2024-03-23T12:30:28;3.67;;;1.58;;
23676;SDS011;31493;49.058;12.190;2024-03-23T12:32:54;3.35;;;1.50;;
23676;SDS011;31493;49.058;12.190;2024-03-23T12:35:22;2.20;;;1.43;;
23676;SDS011;31493;49.058;12.190;2024-03-23T12:37:48;2.92;;;1.67;;
23676;SDS011;31493;49.058;12.190;2024-03-23T12:40:15;3.85;;;1.80;;
23676;SDS011;31493;49.058;12.190;2024-03-23T12:42:42;4.20;;;1.65;;
23676;SDS011;31493;49.058;12.190;2024-03-23T12:45:09;3.13;;;1.65;;
23676;SDS011;31493;49.058;12.190;2024-03-23T12:47:35;6.07;;;1.85;;
23676;SDS011;31493;49.058;12.190;2024-03-23T12:50:03;3.83;;;1.70;;
23676;SDS011;31493;49.058;12.190;2024-03-23T12:52:29;2.30;;;1.42;;
23676;SDS011;31493;49.058;12.190;2024-03-23T12:54:56;3.95;;;1.63;;
23676;SDS011;31493;49.058;12.190;2024-03-23T12:57:23;5.32;;;1.60;;
23676;SDS011;31493;49.058;12.190;2024-03-23T12:59:52;3.40;;;1.77;;
23676;SDS011;31493;49.058;12.190;2024-03-23T13:02:19;5.63;;;1.92;;
23676;SDS011;31493;49.058;12.190;2024-03-23T13:04:49;4.20;;;1.90;;
23676;SDS011;31493;49.058;12.190;2024-03-23T13:07:15;4.05;;;1.75;;
23676;SDS011;31493;49.058;12.190;2024-03-23T13:09:42;3.05;;;1.67;;
23676;SDS011;31493;49.058;12.190;2024-03-23T13:12:09;4.85;;;1.90;;
23676;SDS011;31493;49.058;12.190;2024-03-23T13:14:37;28.80;;;10.98;;
23676;SDS011;31493;49.058;12.190;2024-03-23T13:17:05;5.57;;;2.40;;
23676;SDS011;31493;49.058;12.190;2024-03-23T13:19:32;4.60;;;2.05;;
23676;SDS011;31493;49.058;12.190;2024-03-23T13:21:59;5.57;;;2.40;;
23676;SDS011;31493;49.058;12.190;2024-03-23T13:24:28;3.67;;;1.70;;
23676;SDS011;31493;49.058;12.190;2024-03-23T13:26:54;5.03;;;2.00;;
23676;SDS011;31493;49.058;12.190;2024-03-23T13:29:22;3.53;;;1.77;;
23676;SDS011;31493;49.058;12.190;2024-03-23T13:31:49;7.10;;;2.42;;
23676;SDS011;31493;49.058;12.190;2024-03-23T13:34:19;6.70;;;2.00;;
23676;SDS011;31493;49.058;12.190;2024-03-23T13:36:45;4.93;;;2.03;;
23676;SDS011;31493;49.058;12.190;2024-03-23T13:39:13;5.13;;;1.92;;
23676;SDS011;31493;49.058;12.190;2024-03-23T13:41:41;5.15;;;1.90;;
23676;SDS011;31493;49.058;12.190;2024-03-23T13:44:10;4.30;;;2.05;;
23676;SDS011;31493;49.058;12.190;2024-03-23T13:46:37;5.00;;;2.15;;
23676;SDS011;31493;49.058;12.190;2024-03-23T13:49:04;6.18;;;2.55;;
23676;SDS011;31493;49.058;12.190;2024-03-23T13:51:32;5.97;;;2.33;;
23676;SDS011;31493;49.058;12.190;2024-03-23T13:53:59;6.20;;;1.92;;
23676;SDS011;31493;49.058;12.190;2024-03-23T13:56:26;3.80;;;1.73;;
23676;SDS011;31493;49.058;12.190;2024-03-23T13:58:54;4.90;;;1.83;;
23676;SDS011;31493;49.058;12.190;2024-03-23T14:01:21;3.92;;;1.92;;
23676;SDS011;31493;49.058;12.190;2024-03-23T14:03:48;5.05;;;1.92;;
23676;SDS011;31493;49.058;12.190;2024-03-23T14:06:15;4.72;;;2.10;;
23676;SDS011;31493;49.058;12.190;2024-03-23T14:08:43;5.03;;;1.90;;
23676;SDS011;31493;49.058;12.190;2024-03-23T14:11:09;6.22;;;2.10;;
23676;SDS011;31493;49.058;12.190;2024-03-23T14:13:37;4.50;;;2.03;;
23676;SDS011;31493;49.058;12.190;2024-03-23T14:16:03;4.72;;;1.73;;
23676;SDS011;31493;49.058;12.190;2024-03-23T14:18:31;4.93;;;1.80;;
23676;SDS011;31493;49.058;12.190;2024-03-23T14:20:57;3.22;;;1.80;;
23676;SDS011;31493;49.058;12.190;2024-03-23T14:23:25;9.38;;;2.22;;
23676;SDS011;31493;49.058;12.190;2024-03-23T14:25:56;5.88;;;2.00;;
23676;SDS011;31493;49.058;12.190;2024-03-23T14:28:23;6.40;;;2.22;;
23676;SDS011;31493;49.058;12.190;2024-03-23T14:30:49;4.22;;;1.95;;
23676;SDS011;31493;49.058;12.190;2024-03-23T14:33:16;6.10;;;2.10;;
23676;SDS011;31493;49.058;12.190;2024-03-23T14:35:43;6.47;;;2.40;;
23676;SDS011;31493;49.058;12.190;2024-03-23T14:38:18;5.32;;;2.30;;
23676;SDS011;31493;49.058;12.190;2024-03-23T14:40:44;5.53;;;2.67;;
23676;SDS011;31493;49.058;12.190;2024-03-23T14:43:12;3.78;;;1.98;;
23676;SDS011;31493;49.058;12.190;2024-03-23T14:48:11;8.30;;;2.50;;
23676;SDS011;31493;49.058;12.190;2024-03-23T14:50:37;4.90;;;2.35;;
23676;SDS011;31493;49.058;12.190;2024-03-23T14:53:04;6.03;;;2.50;;
23676;SDS011;31493;49.058;12.190;2024-03-23T14:55:30;5.03;;;2.45;;
23676;SDS011;31493;49.058;12.190;2024-03-23T14:57:57;3.33;;;2.03;;
23676;SDS011;31493;49.058;12.190;2024-03-23T15:00:25;4.70;;;2.17;;
23676;SDS011;31493;49.058;12.190;2024-03-23T15:02:52;5.90;;;2.33;;
23676;SDS011;31493;49.058;12.190;2024-03-23T15:05:18;7.78;;;2.78;;
23676;SDS011;31493;49.058;12.190;2024-03-23T15:07:46;6.75;;;2.45;;
23676;SDS011;31493;49.058;12.190;2024-03-23T15:10:12;6.50;;;2.33;;
23676;SDS011;31493;49.058;12.190;2024-03-23T15:12:39;6.00;;;2.45;;
23676;SDS011;31493;49.058;12.190;2024-03-23T15:15:06;7.00;;;2.50;;
23676;SDS011;31493;49.058;12.190;2024-03-23T15:17:35;5.60;;;2.40;;
23676;SDS011;31493;49.058;12.190;2024-03-23T15:20:02;6.88;;;2.80;;
23676;SDS011;31493;49.058;12.190;2024-03-23T15:22:31;8.52;;;2.72;;
23676;SDS011;31493;49.058;12.190;2024-03-23T15:24:57;7.57;;;2.60;;
23676;SDS011;31493;49.058;12.190;2024-03-23T15:27:24;6.25;;;2.70;;
23676;SDS011;31493;49.058;12.190;2024-03-23T15:29:50;7.90;;;2.80;;
23676;SDS011;31493;49.058;12.190;2024-03-23T15:32:17;8.32;;;2.60;;
23676;SDS011;31493;49.058;12.190;2024-03-23T15:34:45;6.70;;;2.40;;
23676;SDS011;31493;49.058;12.190;2024-03-23T15:37:12;6.82;;;2.45;;
23676;SDS011;31493;49.058;12.190;2024-03-23T15:39:38;6.68;;;2.90;;
23676;SDS011;31493;49.058;12.190;2024-03-23T15:42:06;6.60;;;2.05;;